M/T Filos — 9HQB8 — position and weather

sailwx.info

Track history (hours):
 
Tides and Currents Weather Stations Pressure Air Temp Water Temp Dewpoint Dewpoint Depression Visibility Wind Speed Wind Dir Waves Ship Positions

M/T Filos

Last reported at 2014-Oct-25 05:11 UTC. Time now 2014-Oct-26 08:29 UTC.
Position N 57°58' W 006°17'.

Length 180 m; draft 7.4 m.

Type: Tanker. MMSI: 224561000.

Date/timePositionNaut miles runAvg speedWind from/ knotsBaromVisibWave heightAir tempDewpointWater temp
2014-Oct-25 05:11N 57°58' W 006°17'5 7.7
2014-Oct-25 04:33N 58°01' W 006°10'8 8.5
2014-Oct-25 03:33N 58°08' W 005°60'9 9.1
2014-Oct-25 02:33N 58°17' W 005°57'9 9.4
2014-Oct-25 01:33N 58°26' W 005°53'9 8.7
2014-Oct-25 00:33N 58°34' W 005°46'8 8.4
2014-Oct-24 23:33N 58°40' W 005°35'  
2014-Oct-22 07:33N 58°55' E 010°33'9 9.0
2014-Oct-22 06:33N 59°04' E 010°33'9 9.5
2014-Oct-22 05:33N 59°14' E 010°35'6 6.2
2014-Oct-22 04:33N 59°20' E 010°31'0 0.0
2014-Oct-21 12:31N 59°20' E 010°31'0 0.0
2014-Oct-21 11:28N 59°20' E 010°31'1 0.8
2014-Oct-21 10:33N 59°20' E 010°30'0 0.0
2014-Oct-21 09:30N 59°20' E 010°30'0 0.0
2014-Oct-21 08:33N 59°20' E 010°30'0 0.0
2014-Oct-21 07:33N 59°20' E 010°30'0 0.0
2014-Oct-21 06:33N 59°20' E 010°30'0 0.0
2014-Oct-21 05:33N 59°20' E 010°30'0 0.0
2014-Oct-21 04:33N 59°20' E 010°30'0 0.0
2014-Oct-21 03:33N 59°20' E 010°30'0 0.0
2014-Oct-21 02:30N 59°20' E 010°30'0 0.0
2014-Oct-21 01:33N 59°20' E 010°30'0 0.0
2014-Oct-21 00:33N 59°20' E 010°30'0 0.0
2014-Oct-20 23:33N 59°20' E 010°30'0 0.0
2014-Oct-20 22:33N 59°20' E 010°30'0 0.0
2014-Oct-20 21:33N 59°20' E 010°30'0 0.0
2014-Oct-20 20:33N 59°20' E 010°30'0 0.0
2014-Oct-20 19:33N 59°20' E 010°30'0 0.0
2014-Oct-20 18:33N 59°20' E 010°30'0 0.0
2014-Oct-20 17:33N 59°20' E 010°30'0 0.0
2014-Oct-20 16:33N 59°20' E 010°30'0 0.0
2014-Oct-20 15:33N 59°20' E 010°30'0 0.0
2014-Oct-20 14:33N 59°20' E 010°30'0 0.0
2014-Oct-20 13:33N 59°20' E 010°30'0 0.0
2014-Oct-20 12:33N 59°20' E 010°30'0 0.0
2014-Oct-20 11:33N 59°20' E 010°30'0 0.0
2014-Oct-20 10:33N 59°20' E 010°30'0 0.0
2014-Oct-20 09:33N 59°20' E 010°30'0 0.1
2014-Oct-20 08:33N 59°20' E 010°30'0 0.0
2014-Oct-20 07:33N 59°20' E 010°30'0 0.0
2014-Oct-20 06:33N 59°20' E 010°30'0 0.0
2014-Oct-20 05:33N 59°20' E 010°30'0 0.0
2014-Oct-20 04:33N 59°20' E 010°30'0 0.0
2014-Oct-20 03:33N 59°20' E 010°30'0 0.0
2014-Oct-20 02:33N 59°20' E 010°30'0 0.0
2014-Oct-20 01:33N 59°20' E 010°30'0 0.0
2014-Oct-20 00:33N 59°20' E 010°30'0 0.0
2014-Oct-19 23:33N 59°20' E 010°30'0 0.0
2014-Oct-19 22:33N 59°20' E 010°30'0 0.0
2014-Oct-19 21:33N 59°20' E 010°30'0 0.0
2014-Oct-19 20:33N 59°20' E 010°30'0 0.0
2014-Oct-19 19:33N 59°20' E 010°30'0 0.0
2014-Oct-19 18:33N 59°20' E 010°30'0 0.0
2014-Oct-19 17:33N 59°20' E 010°30'0 0.0
2014-Oct-19 16:33N 59°20' E 010°30'0 0.0
2014-Oct-19 15:33N 59°20' E 010°30'0 0.0
2014-Oct-19 14:33N 59°20' E 010°30'0 0.0
2014-Oct-19 13:33N 59°20' E 010°30'0 0.0
2014-Oct-19 12:33N 59°20' E 010°30'0 0.0
2014-Oct-19 11:33N 59°20' E 010°30'0 0.1
2014-Oct-19 10:30N 59°20' E 010°30'0 0.0
2014-Oct-19 09:33N 59°20' E 010°30'0 0.0
2014-Oct-19 08:33N 59°20' E 010°30'0 0.0
2014-Oct-19 07:33N 59°20' E 010°30'0 0.0
2014-Oct-19 06:33N 59°20' E 010°30'0 0.0
2014-Oct-19 05:33N 59°20' E 010°30'0 0.0
2014-Oct-19 04:33N 59°20' E 010°30'0 0.0
2014-Oct-19 03:33N 59°20' E 010°30'0 0.0
2014-Oct-19 02:33N 59°20' E 010°30'0 0.1
2014-Oct-19 01:33N 59°20' E 010°30'8 8.0
2014-Oct-19 00:33N 59°13' E 010°36'1010.1
2014-Oct-18 23:33N 59°03' E 010°35'5 5.2
2014-Oct-18 22:33N 58°58' E 010°34'8 8.0
2014-Oct-18 21:33N 58°50' E 010°35'7 7.3
2014-Oct-18 20:33N 58°42' E 010°35'7 7.5
2014-Oct-18 19:33N 58°35' E 010°37'8 8.0
2014-Oct-18 18:33N 58°27' E 010°38'8 8.1
2014-Oct-18 17:33N 58°19' E 010°39'9 9.0
2014-Oct-18 16:33N 58°10' E 010°41'1313.4
2014-Oct-18 15:33N 57°57' E 010°42'10 9.7
2014-Oct-18 14:33N 57°47' E 010°41'1212.2
2014-Oct-18 13:33N 57°45' E 010°18'17112.2
2014-Oct-17 23:32N 55°41' E 006°44'1212.4
2014-Oct-17 22:32N 55°30' E 006°33'8712.4
2014-Oct-17 15:32N 54°17' E 005°11'1212.5
2014-Oct-17 14:33N 54°08' E 004°57'1312.6
2014-Oct-17 13:32N 53°59' E 004°42'13911.2
2014-Oct-17 01:07N 51°50' E 003°13'5 7.6
2014-Oct-17 00:31N 51°46' E 003°17'0 0.1
2014-Oct-16 23:31N 51°46' E 003°17'0 0.0
2014-Oct-16 22:31N 51°46' E 003°17'1 0.7
2014-Oct-16 21:32N 51°46' E 003°17'1010.2
2014-Oct-16 20:33N 51°36' E 003°23'1111.5
2014-Oct-16 19:33N 51°27' E 003°33'1010.2
2014-Oct-16 18:33N 51°21' E 003°47'9 9.0
2014-Oct-16 17:33N 51°26' E 003°59'8 7.9
2014-Oct-16 16:33N 51°24' E 004°11'5 5.0
2014-Oct-16 15:33N 51°21' E 004°17'1 0.7
2014-Oct-16 14:33N 51°20' E 004°18'4 4.3
2014-Oct-16 13:33N 51°16' E 004°21'0 0.0
2014-Oct-16 12:28N 51°16' E 004°21'0 0.0
2014-Oct-16 11:28N 51°16' E 004°21'0 0.0
2014-Oct-16 10:28N 51°16' E 004°21'0 0.0
2014-Oct-16 09:31N 51°16' E 004°21'0 0.0
2014-Oct-16 08:31N 51°16' E 004°21'0 0.0
2014-Oct-16 07:31N 51°16' E 004°21'0 0.0
2014-Oct-16 06:31N 51°16' E 004°21'0 0.0
2014-Oct-16 05:31N 51°16' E 004°21'0 0.0
2014-Oct-16 04:31N 51°16' E 004°21'0 0.0
2014-Oct-16 03:31N 51°16' E 004°21'0 0.0
2014-Oct-16 02:31N 51°16' E 004°21'0 0.0
2014-Oct-16 01:31N 51°16' E 004°21'0 0.0
2014-Oct-16 00:25N 51°16' E 004°21'0 0.0
2014-Oct-15 23:25N 51°16' E 004°21'0 0.0
2014-Oct-15 22:31N 51°16' E 004°21'0 0.0
2014-Oct-15 21:25N 51°16' E 004°21'0 0.0
2014-Oct-15 20:31N 51°16' E 004°21'3 2.9
2014-Oct-15 19:33N 51°19' E 004°19'2 2.3
2014-Oct-15 18:33N 51°21' E 004°17'1 0.9
2014-Oct-15 17:34N 51°21' E 004°16'7 6.7
2014-Oct-15 16:33N 51°22' E 004°05'6 5.8
2014-Oct-15 15:33N 51°22' E 003°56'9 9.5
2014-Oct-15 14:34N 51°25' E 003°42'10 9.8
2014-Oct-15 13:33N 51°25' E 003°26'1211.4
2014-Oct-15 12:31N 51°24' E 003°07'1210.5
2014-Oct-15 11:23N 51°22' E 002°48'6 7.5
2014-Oct-15 10:33N 51°21' E 002°38'2 2.0
2014-Oct-15 09:27N 51°20' E 002°35'0 0.3
2014-Oct-15 08:33N 51°20' E 002°35'11 9.8
2014-Oct-15 07:25N 51°18' E 002°18'1112.6
2014-Oct-15 06:32N 51°13' E 002°02'1313.0
2014-Oct-15 05:33N 51°05' E 001°46'  
Track history (hours):
 
Tides and Currents Weather Stations Pressure Air Temp Water Temp Dewpoint Dewpoint Depression Visibility Wind Speed Wind Dir Waves Ship Positions

M/T Filos

Last reported at 2014-Oct-25 05:11 UTC. Time now 2014-Oct-26 08:29 UTC.
Position N 57°58' W 006°17'.

Length 180 m; draft 7.4 m.

Type: Tanker. MMSI: 224561000.

Date/timePositionNaut miles runAvg speedWind from/ knotsBaromVisibWave heightAir tempDewpointWater temp
2014-Oct-25 05:11N 57°58' W 006°17'5 7.7
2014-Oct-25 04:33N 58°01' W 006°10'8 8.5
2014-Oct-25 03:33N 58°08' W 005°60'9 9.1
2014-Oct-25 02:33N 58°17' W 005°57'9 9.4
2014-Oct-25 01:33N 58°26' W 005°53'9 8.7
2014-Oct-25 00:33N 58°34' W 005°46'8 8.4
2014-Oct-24 23:33N 58°40' W 005°35'  
2014-Oct-22 07:33N 58°55' E 010°33'9 9.0
2014-Oct-22 06:33N 59°04' E 010°33'9 9.5
2014-Oct-22 05:33N 59°14' E 010°35'6 6.2
2014-Oct-22 04:33N 59°20' E 010°31'0 0.0
2014-Oct-21 12:31N 59°20' E 010°31'0 0.0
2014-Oct-21 11:28N 59°20' E 010°31'1 0.8
2014-Oct-21 10:33N 59°20' E 010°30'0 0.0
2014-Oct-21 09:30N 59°20' E 010°30'0 0.0
2014-Oct-21 08:33N 59°20' E 010°30'0 0.0
2014-Oct-21 07:33N 59°20' E 010°30'0 0.0
2014-Oct-21 06:33N 59°20' E 010°30'0 0.0
2014-Oct-21 05:33N 59°20' E 010°30'0 0.0
2014-Oct-21 04:33N 59°20' E 010°30'0 0.0
2014-Oct-21 03:33N 59°20' E 010°30'0 0.0
2014-Oct-21 02:30N 59°20' E 010°30'0 0.0
2014-Oct-21 01:33N 59°20' E 010°30'0 0.0
2014-Oct-21 00:33N 59°20' E 010°30'0 0.0
2014-Oct-20 23:33N 59°20' E 010°30'0 0.0
2014-Oct-20 22:33N 59°20' E 010°30'0 0.0
2014-Oct-20 21:33N 59°20' E 010°30'0 0.0
2014-Oct-20 20:33N 59°20' E 010°30'0 0.0
2014-Oct-20 19:33N 59°20' E 010°30'0 0.0
2014-Oct-20 18:33N 59°20' E 010°30'0 0.0
2014-Oct-20 17:33N 59°20' E 010°30'0 0.0
2014-Oct-20 16:33N 59°20' E 010°30'0 0.0
2014-Oct-20 15:33N 59°20' E 010°30'0 0.0
2014-Oct-20 14:33N 59°20' E 010°30'0 0.0
2014-Oct-20 13:33N 59°20' E 010°30'0 0.0
2014-Oct-20 12:33N 59°20' E 010°30'0 0.0
2014-Oct-20 11:33N 59°20' E 010°30'0 0.0
2014-Oct-20 10:33N 59°20' E 010°30'0 0.0
2014-Oct-20 09:33N 59°20' E 010°30'0 0.1
2014-Oct-20 08:33N 59°20' E 010°30'0 0.0
2014-Oct-20 07:33N 59°20' E 010°30'0 0.0
2014-Oct-20 06:33N 59°20' E 010°30'0 0.0
2014-Oct-20 05:33N 59°20' E 010°30'0 0.0
2014-Oct-20 04:33N 59°20' E 010°30'0 0.0
2014-Oct-20 03:33N 59°20' E 010°30'0 0.0
2014-Oct-20 02:33N 59°20' E 010°30'0 0.0
2014-Oct-20 01:33N 59°20' E 010°30'0 0.0
2014-Oct-20 00:33N 59°20' E 010°30'0 0.0
2014-Oct-19 23:33N 59°20' E 010°30'0 0.0
2014-Oct-19 22:33N 59°20' E 010°30'0 0.0
2014-Oct-19 21:33N 59°20' E 010°30'0 0.0
2014-Oct-19 20:33N 59°20' E 010°30'0 0.0
2014-Oct-19 19:33N 59°20' E 010°30'0 0.0
2014-Oct-19 18:33N 59°20' E 010°30'0 0.0
2014-Oct-19 17:33N 59°20' E 010°30'0 0.0
2014-Oct-19 16:33N 59°20' E 010°30'0 0.0
2014-Oct-19 15:33N 59°20' E 010°30'0 0.0
2014-Oct-19 14:33N 59°20' E 010°30'0 0.0
2014-Oct-19 13:33N 59°20' E 010°30'0 0.0
2014-Oct-19 12:33N 59°20' E 010°30'0 0.0
2014-Oct-19 11:33N 59°20' E 010°30'0 0.1
2014-Oct-19 10:30N 59°20' E 010°30'0 0.0
2014-Oct-19 09:33N 59°20' E 010°30'0 0.0
2014-Oct-19 08:33N 59°20' E 010°30'0 0.0
2014-Oct-19 07:33N 59°20' E 010°30'0 0.0
2014-Oct-19 06:33N 59°20' E 010°30'0 0.0
2014-Oct-19 05:33N 59°20' E 010°30'0 0.0
2014-Oct-19 04:33N 59°20' E 010°30'0 0.0
2014-Oct-19 03:33N 59°20' E 010°30'0 0.0
2014-Oct-19 02:33N 59°20' E 010°30'0 0.1
2014-Oct-19 01:33N 59°20' E 010°30'8 8.0
2014-Oct-19 00:33N 59°13' E 010°36'1010.1
2014-Oct-18 23:33N 59°03' E 010°35'5 5.2
2014-Oct-18 22:33N 58°58' E 010°34'8 8.0
2014-Oct-18 21:33N 58°50' E 010°35'7 7.3
2014-Oct-18 20:33N 58°42' E 010°35'7 7.5
2014-Oct-18 19:33N 58°35' E 010°37'8 8.0
2014-Oct-18 18:33N 58°27' E 010°38'8 8.1
2014-Oct-18 17:33N 58°19' E 010°39'9 9.0
2014-Oct-18 16:33N 58°10' E 010°41'1313.4
2014-Oct-18 15:33N 57°57' E 010°42'10 9.7
2014-Oct-18 14:33N 57°47' E 010°41'1212.2
2014-Oct-18 13:33N 57°45' E 010°18'17112.2
2014-Oct-17 23:32N 55°41' E 006°44'1212.4
2014-Oct-17 22:32N 55°30' E 006°33'8712.4
2014-Oct-17 15:32N 54°17' E 005°11'1212.5
2014-Oct-17 14:33N 54°08' E 004°57'1312.6
2014-Oct-17 13:32N 53°59' E 004°42'13911.2
2014-Oct-17 01:07N 51°50' E 003°13'5 7.6
2014-Oct-17 00:31N 51°46' E 003°17'0 0.1
2014-Oct-16 23:31N 51°46' E 003°17'0 0.0
2014-Oct-16 22:31N 51°46' E 003°17'1 0.7
2014-Oct-16 21:32N 51°46' E 003°17'1010.2
2014-Oct-16 20:33N 51°36' E 003°23'1111.5
2014-Oct-16 19:33N 51°27' E 003°33'1010.2
2014-Oct-16 18:33N 51°21' E 003°47'9 9.0
2014-Oct-16 17:33N 51°26' E 003°59'8 7.9
2014-Oct-16 16:33N 51°24' E 004°11'5 5.0
2014-Oct-16 15:33N 51°21' E 004°17'1 0.7
2014-Oct-16 14:33N 51°20' E 004°18'4 4.3
2014-Oct-16 13:33N 51°16' E 004°21'0 0.0
2014-Oct-16 12:28N 51°16' E 004°21'0 0.0
2014-Oct-16 11:28N 51°16' E 004°21'0 0.0
2014-Oct-16 10:28N 51°16' E 004°21'0 0.0
2014-Oct-16 09:31N 51°16' E 004°21'0 0.0
2014-Oct-16 08:31N 51°16' E 004°21'0 0.0
2014-Oct-16 07:31N 51°16' E 004°21'0 0.0
2014-Oct-16 06:31N 51°16' E 004°21'0 0.0
2014-Oct-16 05:31N 51°16' E 004°21'0 0.0
2014-Oct-16 04:31N 51°16' E 004°21'0 0.0
2014-Oct-16 03:31N 51°16' E 004°21'0 0.0
2014-Oct-16 02:31N 51°16' E 004°21'0 0.0
2014-Oct-16 01:31N 51°16' E 004°21'0 0.0
2014-Oct-16 00:25N 51°16' E 004°21'0 0.0
2014-Oct-15 23:25N 51°16' E 004°21'0 0.0
2014-Oct-15 22:31N 51°16' E 004°21'0 0.0
2014-Oct-15 21:25N 51°16' E 004°21'0 0.0
2014-Oct-15 20:31N 51°16' E 004°21'3 2.9
2014-Oct-15 19:33N 51°19' E 004°19'2 2.3
2014-Oct-15 18:33N 51°21' E 004°17'1 0.9
2014-Oct-15 17:34N 51°21' E 004°16'7 6.7
2014-Oct-15 16:33N 51°22' E 004°05'6 5.8
2014-Oct-15 15:33N 51°22' E 003°56'9 9.5
2014-Oct-15 14:34N 51°25' E 003°42'10 9.8
2014-Oct-15 13:33N 51°25' E 003°26'1211.4
2014-Oct-15 12:31N 51°24' E 003°07'1210.5
2014-Oct-15 11:23N 51°22' E 002°48'6 7.5
2014-Oct-15 10:33N 51°21' E 002°38'2 2.0
2014-Oct-15 09:27N 51°20' E 002°35'0 0.3
2014-Oct-15 08:33N 51°20' E 002°35'11 9.8
2014-Oct-15 07:25N 51°18' E 002°18'1112.6
2014-Oct-15 06:32N 51°13' E 002°02'1313.0
2014-Oct-15 05:33N 51°05' E 001°46'  

Dump ship's entire track history